createdAt,value
2022-12-08T00:00:50.613Z,11.75
2022-12-08T00:03:17.457Z,11.63
2022-12-08T00:06:05.023Z,11.90
2022-12-08T00:08:50.802Z,11.40
2022-12-08T00:11:17.999Z,12.50
2022-12-08T00:13:44.953Z,12.15
2022-12-08T00:16:11.683Z,12.55
2022-12-08T00:18:38.483Z,12.88
2022-12-08T00:21:05.266Z,13.38
2022-12-08T00:23:34.219Z,13.80
2022-12-08T00:26:05.063Z,13.77
2022-12-08T00:28:32.895Z,14.23
2022-12-08T00:31:00.171Z,14.73
2022-12-08T00:33:29.568Z,14.65
2022-12-08T00:35:56.277Z,14.07
2022-12-08T00:38:22.842Z,15.27
2022-12-08T00:40:49.527Z,15.80
2022-12-08T00:43:16.241Z,17.13
2022-12-08T00:45:43.428Z,17.55
2022-12-08T00:48:11.403Z,18.20
2022-12-08T00:50:38.059Z,18.77
2022-12-08T00:53:04.910Z,18.90
2022-12-08T00:55:31.639Z,19.05
2022-12-08T00:57:58.231Z,19.10
2022-12-08T01:00:25.004Z,19.60
2022-12-08T01:02:51.753Z,21.65
2022-12-08T01:05:18.397Z,19.92
2022-12-08T01:07:45.063Z,20.13
2022-12-08T01:10:11.705Z,20.67
2022-12-08T01:12:38.343Z,21.23
2022-12-08T01:15:05.272Z,20.70
2022-12-08T01:17:32.056Z,19.98
2022-12-08T01:19:58.934Z,20.95
2022-12-08T01:22:26.109Z,21.15
2022-12-08T01:24:52.684Z,20.25
2022-12-08T01:27:19.390Z,19.80
2022-12-08T01:29:46.017Z,20.50
2022-12-08T01:32:12.668Z,20.88
2022-12-08T01:34:39.475Z,20.45
2022-12-08T01:37:07.333Z,20.27
2022-12-08T01:39:35.202Z,19.88
2022-12-08T01:42:01.764Z,19.20
2022-12-08T01:44:28.336Z,18.90
2022-12-08T01:46:55.459Z,17.33
2022-12-08T01:49:30.452Z,16.63
2022-12-08T01:52:12.223Z,16.15
2022-12-08T01:54:52.519Z,17.20
2022-12-08T01:57:25.469Z,16.48
2022-12-08T02:00:07.026Z,14.73
2022-12-08T02:02:46.467Z,13.77
2022-12-08T02:05:14.191Z,13.35
2022-12-08T02:07:41.161Z,13.65
2022-12-08T02:10:08.459Z,13.05
2022-12-08T02:12:35.083Z,12.93
2022-12-08T02:15:05.288Z,12.38
2022-12-08T02:17:45.640Z,12.48
2022-12-08T02:20:47.449Z,10.80
2022-12-08T02:23:44.952Z,11.55
2022-12-08T02:29:20.145Z,10.95
2022-12-08T02:32:34.450Z,9.73
2022-12-08T02:35:14.539Z,9.70
2022-12-08T02:37:54.727Z,9.25
2022-12-08T02:40:28.672Z,9.05
2022-12-08T02:43:00.560Z,9.23
2022-12-08T02:45:38.624Z,7.65
2022-12-08T02:48:06.389Z,8.43
2022-12-08T02:50:32.926Z,7.43
2022-12-08T02:52:59.589Z,7.35
2022-12-08T02:55:32.974Z,7.30
2022-12-08T02:58:41.107Z,6.82
2022-12-08T03:01:13.619Z,7.03
2022-12-08T03:03:55.648Z,6.75
2022-12-08T03:06:25.563Z,7.07
2022-12-08T03:08:56.204Z,7.25
2022-12-08T03:11:37.659Z,7.93
2022-12-08T03:14:06.407Z,7.68
2022-12-08T03:16:38.391Z,7.95
2022-12-08T03:19:27.921Z,7.35
2022-12-08T03:22:03.302Z,7.20
2022-12-08T03:24:37.212Z,8.15
2022-12-08T03:27:12.357Z,7.50
2022-12-08T03:29:39.013Z,7.80
2022-12-08T03:32:22.390Z,7.82
2022-12-08T03:34:50.781Z,7.50
2022-12-08T03:37:17.399Z,7.05
2022-12-08T03:39:44.143Z,7.43
2022-12-08T03:42:10.711Z,7.40
2022-12-08T03:44:37.277Z,6.95
2022-12-08T03:47:03.915Z,6.50
2022-12-08T03:49:30.502Z,7.18
2022-12-08T03:51:57.092Z,6.35
2022-12-08T03:54:24.340Z,6.40
2022-12-08T03:56:50.976Z,6.80
2022-12-08T03:59:17.639Z,5.90
2022-12-08T04:01:44.568Z,5.53
2022-12-08T04:04:13.972Z,5.63
2022-12-08T04:06:40.782Z,6.65
2022-12-08T04:09:07.387Z,5.47
2022-12-08T04:11:33.986Z,6.18
2022-12-08T04:14:00.562Z,3.78
2022-12-08T04:16:28.001Z,3.92
2022-12-08T04:18:54.872Z,5.20
2022-12-08T04:21:21.448Z,3.95
2022-12-08T04:23:48.484Z,3.45
2022-12-08T04:26:15.621Z,3.22
2022-12-08T04:28:42.330Z,3.65
2022-12-08T04:31:09.137Z,2.88
2022-12-08T04:33:36.152Z,3.05
2022-12-08T04:36:04.946Z,3.10
2022-12-08T04:38:31.623Z,2.80
2022-12-08T04:40:58.245Z,2.80
2022-12-08T04:43:24.890Z,4.07
2022-12-08T04:45:51.453Z,3.50
2022-12-08T04:48:21.242Z,3.20
2022-12-08T04:50:47.891Z,3.03
2022-12-08T04:53:15.223Z,3.60
2022-12-08T04:55:48.580Z,3.30
2022-12-08T04:58:17.937Z,3.50
2022-12-08T05:00:45.274Z,3.45
2022-12-08T05:03:12.965Z,3.60
2022-12-08T05:05:39.666Z,3.78
2022-12-08T05:08:07.603Z,3.35
2022-12-08T05:10:34.327Z,3.20
2022-12-08T05:13:01.115Z,3.17
2022-12-08T05:15:28.400Z,3.33
2022-12-08T05:17:55.217Z,3.00
2022-12-08T05:20:22.136Z,2.88
2022-12-08T05:22:48.785Z,2.97
2022-12-08T05:25:15.423Z,2.63
2022-12-08T05:27:43.066Z,2.70
2022-12-08T05:30:09.961Z,3.35
2022-12-08T05:32:36.651Z,2.85
2022-12-08T05:35:05.623Z,3.30
2022-12-08T05:37:32.221Z,3.45
2022-12-08T05:40:01.799Z,3.15
2022-12-08T05:42:28.572Z,3.13
2022-12-08T05:44:58.159Z,3.70
2022-12-08T05:47:24.817Z,3.65
2022-12-08T05:49:51.685Z,3.85
2022-12-08T05:52:18.719Z,4.20
2022-12-08T05:54:47.350Z,4.05
2022-12-08T05:57:13.939Z,5.90
2022-12-08T05:59:41.268Z,4.90
2022-12-08T06:02:08.794Z,5.10
2022-12-08T06:04:36.035Z,4.80
2022-12-08T06:07:02.613Z,5.38
2022-12-08T06:09:29.258Z,4.97
2022-12-08T06:11:55.864Z,5.03
2022-12-08T06:14:22.419Z,5.50
2022-12-08T06:16:49.149Z,4.65
2022-12-08T06:19:16.081Z,4.38
2022-12-08T06:21:42.677Z,4.32
2022-12-08T06:24:09.627Z,4.20
2022-12-08T06:26:36.212Z,4.10
2022-12-08T06:29:02.942Z,3.85
2022-12-08T06:31:29.701Z,4.32
2022-12-08T06:33:56.574Z,4.10
2022-12-08T06:36:25.742Z,3.80
2022-12-08T06:38:52.734Z,3.85
2022-12-08T06:41:19.531Z,3.38
2022-12-08T06:43:46.128Z,4.18
2022-12-08T06:46:16.170Z,3.53
2022-12-08T06:48:43.632Z,3.80
2022-12-08T06:51:19.474Z,4.25
2022-12-08T06:53:47.208Z,4.30
2022-12-08T06:56:15.836Z,4.65
2022-12-08T06:58:46.144Z,4.43
2022-12-08T07:01:17.161Z,5.60
2022-12-08T07:03:44.360Z,4.80
2022-12-08T07:06:16.144Z,5.43
2022-12-08T07:08:42.875Z,5.65
2022-12-08T07:11:12.370Z,5.78
2022-12-08T07:13:40.786Z,5.80
2022-12-08T07:16:08.901Z,6.30
2022-12-08T07:18:36.091Z,6.28
2022-12-08T07:21:08.200Z,6.38
2022-12-08T07:23:35.106Z,6.70
2022-12-08T07:26:03.708Z,6.97
2022-12-08T07:28:36.788Z,7.05
2022-12-08T07:31:03.934Z,6.90
2022-12-08T07:33:31.323Z,7.28
2022-12-08T07:36:00.230Z,8.10
2022-12-08T07:38:27.747Z,7.82
2022-12-08T07:40:54.698Z,7.53
2022-12-08T07:43:22.503Z,7.63
2022-12-08T07:45:50.071Z,8.30
2022-12-08T07:48:17.427Z,7.90
2022-12-08T07:50:44.577Z,8.25
2022-12-08T07:53:11.646Z,7.78
2022-12-08T07:55:41.931Z,8.55
2022-12-08T07:58:08.753Z,8.27
2022-12-08T08:00:35.652Z,8.30
2022-12-08T08:03:02.797Z,9.05
2022-12-08T08:05:29.488Z,9.27
2022-12-08T08:07:56.105Z,9.38
2022-12-08T08:10:22.861Z,9.23
2022-12-08T08:12:49.606Z,9.95
2022-12-08T08:15:17.494Z,9.77
2022-12-08T08:17:44.382Z,9.65
2022-12-08T08:20:11.853Z,11.20
2022-12-08T08:22:38.714Z,9.80
2022-12-08T08:25:06.127Z,10.43
2022-12-08T08:27:32.871Z,10.15
2022-12-08T08:30:00.848Z,10.82
2022-12-08T08:32:27.568Z,10.52
2022-12-08T08:34:54.185Z,9.57
2022-12-08T08:37:20.853Z,9.88
2022-12-08T08:39:47.502Z,10.13
2022-12-08T08:42:14.074Z,10.70
2022-12-08T08:44:40.858Z,9.95
2022-12-08T08:47:07.557Z,10.50
2022-12-08T08:49:34.510Z,10.00
2022-12-08T08:52:01.051Z,9.45
2022-12-08T08:54:29.203Z,10.50
2022-12-08T08:56:57.751Z,10.50
2022-12-08T08:59:24.921Z,11.02
2022-12-08T09:01:54.876Z,10.77
2022-12-08T09:04:22.757Z,10.00
2022-12-08T09:06:49.879Z,9.77
2022-12-08T09:09:16.553Z,9.40
2022-12-08T09:11:44.019Z,8.63
2022-12-08T09:14:12.709Z,9.57
2022-12-08T09:16:42.440Z,8.73
2022-12-08T09:19:09.519Z,8.85
2022-12-08T09:21:36.123Z,9.85
2022-12-08T09:24:02.749Z,8.95
2022-12-08T09:26:29.414Z,8.98
2022-12-08T09:28:56.780Z,8.85
2022-12-08T09:31:24.635Z,8.48
2022-12-08T09:33:54.070Z,8.73
2022-12-08T09:36:21.382Z,8.80
2022-12-08T09:38:49.063Z,9.30
2022-12-08T09:41:23.880Z,8.80
2022-12-08T09:43:53.248Z,8.95
2022-12-08T09:46:20.702Z,9.73
2022-12-08T09:48:55.887Z,9.00
2022-12-08T09:51:33.055Z,9.93
2022-12-08T09:54:13.193Z,10.18
2022-12-08T09:56:39.960Z,9.50
2022-12-08T09:59:22.277Z,8.98
2022-12-08T10:01:51.817Z,8.82
2022-12-08T10:04:28.841Z,9.30
2022-12-08T10:07:17.021Z,8.90
2022-12-08T10:09:59.377Z,9.00
2022-12-08T10:12:49.646Z,9.18
2022-12-08T10:15:38.061Z,9.27
2022-12-08T10:18:13.557Z,8.88
2022-12-08T10:20:45.845Z,9.27
2022-12-08T10:23:12.337Z,8.27
2022-12-08T10:25:47.872Z,8.02
2022-12-08T10:28:14.589Z,7.65
2022-12-08T10:30:41.775Z,7.63
2022-12-08T10:33:16.819Z,7.35
2022-12-08T10:35:56.277Z,7.63
2022-12-08T10:38:35.905Z,7.57
2022-12-08T10:41:11.806Z,7.93
2022-12-08T10:43:43.765Z,7.50
2022-12-08T10:46:15.755Z,7.43
2022-12-08T10:48:48.439Z,7.40
2022-12-08T10:51:35.340Z,7.07
2022-12-08T10:54:02.031Z,7.68
2022-12-08T10:56:30.970Z,8.18
2022-12-08T10:59:20.896Z,7.28
2022-12-08T11:01:52.728Z,7.43
2022-12-08T11:04:22.422Z,7.88
2022-12-08T11:06:50.777Z,7.60
2022-12-08T11:09:17.301Z,6.80
2022-12-08T11:11:52.965Z,7.53
2022-12-08T11:14:22.710Z,7.43
2022-12-08T11:16:51.489Z,7.28
2022-12-08T11:19:19.882Z,7.93
2022-12-08T11:21:47.515Z,7.30
2022-12-08T11:24:32.262Z,7.72
2022-12-08T11:27:06.370Z,8.30
2022-12-08T11:29:35.195Z,8.13
2022-12-08T11:32:12.202Z,7.22
2022-12-08T11:34:44.260Z,7.68
2022-12-08T11:37:21.320Z,7.55
2022-12-08T11:39:53.914Z,7.97
2022-12-08T11:42:23.996Z,7.47
2022-12-08T11:44:57.612Z,8.57
2022-12-08T11:47:45.717Z,7.20
2022-12-08T11:50:24.393Z,7.25
2022-12-08T11:52:51.829Z,6.65
2022-12-08T11:55:39.443Z,6.65
2022-12-08T11:58:26.401Z,7.50
2022-12-08T12:00:53.076Z,7.00
2022-12-08T12:03:31.233Z,6.85
2022-12-08T12:06:18.553Z,7.00
2022-12-08T12:09:05.003Z,7.40
2022-12-08T12:12:12.018Z,6.93
2022-12-08T12:14:41.844Z,6.53
2022-12-08T12:17:39.299Z,7.57
2022-12-08T12:22:43.705Z,7.07
2022-12-08T12:25:20.675Z,6.97
2022-12-08T12:27:49.431Z,7.30
2022-12-08T12:30:21.103Z,7.32
2022-12-08T12:33:11.906Z,7.38
2022-12-08T12:35:43.190Z,7.97
2022-12-08T12:38:40.221Z,6.95
2022-12-08T12:41:09.075Z,6.82
2022-12-08T12:43:37.911Z,7.28
2022-12-08T12:46:50.329Z,7.85
2022-12-08T12:49:50.584Z,7.20
2022-12-08T12:52:18.060Z,7.88
2022-12-08T12:54:50.648Z,6.68
2022-12-08T12:57:20.350Z,7.10
2022-12-08T12:59:54.674Z,7.03
2022-12-08T13:02:32.309Z,7.32
2022-12-08T13:05:26.273Z,6.93
2022-12-08T13:08:24.383Z,7.30
2022-12-08T13:10:59.998Z,8.50
2022-12-08T13:13:27.077Z,7.65
2022-12-08T13:15:55.273Z,7.60
2022-12-08T13:18:25.961Z,8.73
2022-12-08T13:20:59.103Z,8.18
2022-12-08T13:23:26.011Z,10.35
2022-12-08T13:25:53.898Z,9.20
2022-12-08T13:28:30.078Z,8.48
2022-12-08T13:31:00.899Z,8.15
2022-12-08T13:33:40.522Z,8.57
2022-12-08T13:36:25.701Z,9.20
2022-12-08T13:38:56.766Z,8.20
2022-12-08T13:41:37.160Z,8.52
2022-12-08T13:59:24.249Z,8.43
2022-12-08T14:01:51.962Z,8.57
2022-12-08T14:04:42.509Z,9.45
2022-12-08T14:07:11.546Z,9.50
2022-12-08T14:09:38.532Z,9.00
2022-12-08T14:12:16.079Z,11.75
2022-12-08T14:15:02.982Z,8.98
2022-12-08T14:17:34.599Z,9.98
2022-12-08T14:20:13.496Z,9.55
2022-12-08T14:22:41.215Z,12.15
2022-12-08T14:25:18.789Z,15.25
2022-12-08T14:27:46.535Z,12.82
2022-12-08T14:30:16.155Z,10.45
2022-12-08T14:32:47.016Z,10.20
2022-12-08T14:35:19.565Z,17.73
2022-12-08T14:37:52.708Z,14.52
2022-12-08T14:40:23.081Z,18.05
2022-12-08T14:43:07.793Z,19.10
2022-12-08T14:45:35.233Z,13.18
2022-12-08T14:48:25.726Z,11.73
2022-12-08T14:51:19.475Z,11.38
2022-12-08T14:54:01.432Z,11.73
2022-12-08T14:56:39.166Z,11.90
2022-12-08T14:59:14.221Z,11.55
2022-12-08T15:01:43.023Z,12.77
2022-12-08T15:04:12.585Z,14.13
2022-12-08T15:07:01.113Z,13.27
2022-12-08T15:09:36.487Z,13.15
2022-12-08T15:12:24.713Z,16.73
2022-12-08T15:14:55.875Z,14.20
2022-12-08T15:17:35.976Z,13.27
2022-12-08T15:20:05.044Z,12.13
2022-12-08T15:22:32.061Z,12.57
2022-12-08T15:24:58.737Z,14.15
2022-12-08T15:27:25.910Z,13.90
2022-12-08T15:29:52.876Z,15.85
2022-12-08T15:32:23.798Z,12.82
2022-12-08T15:34:50.548Z,13.93
2022-12-08T15:37:26.706Z,13.57
2022-12-08T15:39:53.477Z,13.20
2022-12-08T15:42:20.119Z,12.77
2022-12-08T15:44:47.038Z,14.30
2022-12-08T15:47:19.121Z,13.15
2022-12-08T15:49:47.185Z,13.48
2022-12-08T15:52:24.513Z,14.35
2022-12-08T15:54:51.380Z,15.25
2022-12-08T15:58:17.442Z,15.27
2022-12-08T16:00:50.480Z,16.63
2022-12-08T16:03:42.538Z,17.25
2022-12-08T16:07:19.205Z,15.48
2022-12-08T16:09:11.954Z,16.77
2022-12-08T16:12:06.696Z,14.32
2022-12-08T16:17:22.024Z,15.68
2022-12-08T16:19:49.404Z,15.02
2022-12-08T16:25:18.348Z,14.82
2022-12-08T16:30:34.320Z,11.98
2022-12-08T16:33:00.879Z,10.80
2022-12-08T16:35:27.504Z,12.18
2022-12-08T16:37:54.222Z,12.30
2022-12-08T16:40:21.048Z,11.70
2022-12-08T16:42:48.367Z,10.02
2022-12-08T16:45:24.093Z,10.52
2022-12-08T16:47:52.057Z,10.90
2022-12-08T16:50:22.405Z,11.65
2022-12-08T16:52:50.144Z,12.98
2022-12-08T16:55:19.259Z,14.05
2022-12-08T16:57:47.401Z,14.00
2022-12-08T17:00:20.288Z,14.35
2022-12-08T17:02:47.173Z,14.00
2022-12-08T17:05:15.873Z,13.32
2022-12-08T17:07:44.652Z,14.38
2022-12-08T17:10:14.547Z,16.08
2022-12-08T17:12:41.577Z,14.23
2022-12-08T17:15:12.454Z,14.25
2022-12-08T17:17:39.591Z,12.93
2022-12-08T17:20:09.287Z,15.88
2022-12-08T17:22:41.383Z,14.52
2022-12-08T17:25:08.942Z,14.98
2022-12-08T17:27:36.547Z,14.00
2022-12-08T17:30:07.232Z,15.70
2022-12-08T17:32:34.177Z,13.30
2022-12-08T17:35:00.860Z,13.30
2022-12-08T17:37:27.463Z,14.93
2022-12-08T17:39:53.993Z,14.88
2022-12-08T17:42:25.774Z,14.57
2022-12-08T17:44:53.127Z,14.45
2022-12-08T17:47:19.864Z,14.50
2022-12-08T17:49:46.632Z,27.15
2022-12-08T17:52:13.198Z,19.92
2022-12-08T17:54:39.856Z,21.65
2022-12-08T17:57:06.476Z,18.48
2022-12-08T17:59:33.226Z,17.98
2022-12-08T18:02:00.139Z,20.92
2022-12-08T18:04:28.354Z,20.05
2022-12-08T18:06:55.227Z,21.45
2022-12-08T18:09:21.974Z,22.08
2022-12-08T18:11:48.616Z,21.55
2022-12-08T18:14:16.167Z,22.77
2022-12-08T18:16:46.610Z,21.92
2022-12-08T18:19:15.014Z,22.00
2022-12-08T18:21:42.119Z,22.48
2022-12-08T18:24:15.743Z,23.35
2022-12-08T18:26:42.330Z,22.60
2022-12-08T18:29:08.965Z,25.98
2022-12-08T18:31:35.615Z,27.25
2022-12-08T18:34:02.560Z,25.33
2022-12-08T18:36:29.365Z,22.45
2022-12-08T18:38:56.109Z,23.25
2022-12-08T18:41:25.913Z,23.45
2022-12-08T18:43:53.948Z,23.98
2022-12-08T18:46:21.268Z,25.00
2022-12-08T18:48:49.888Z,25.08
2022-12-08T18:51:19.136Z,26.88
2022-12-08T18:53:47.058Z,23.42
2022-12-08T18:56:28.490Z,25.33
2022-12-08T18:59:02.573Z,26.50
2022-12-08T19:01:31.088Z,25.70
2022-12-08T19:04:26.597Z,24.85
2022-12-08T19:06:46.130Z,25.33
2022-12-08T19:09:13.985Z,26.10
2022-12-08T19:11:41.674Z,26.85
2022-12-08T19:14:09.068Z,27.42
2022-12-08T19:16:36.121Z,26.23
2022-12-08T19:19:04.057Z,25.80
2022-12-08T19:21:31.480Z,25.80
2022-12-08T19:23:58.555Z,27.67
2022-12-08T19:26:27.494Z,46.15
2022-12-08T19:28:54.300Z,30.90
2022-12-08T19:31:21.170Z,32.13
2022-12-08T19:33:47.940Z,33.33
2022-12-08T19:36:17.855Z,27.55
2022-12-08T19:39:03.059Z,30.67
2022-12-08T19:41:48.631Z,27.92
2022-12-08T19:44:34.625Z,27.63
2022-12-08T19:47:01.875Z,27.67
2022-12-08T19:49:28.939Z,27.23
2022-12-08T19:51:56.116Z,27.65
2022-12-08T19:54:22.792Z,26.10
2022-12-08T19:56:49.537Z,28.00
2022-12-08T19:59:16.333Z,29.48
2022-12-08T20:01:44.086Z,27.67
2022-12-08T20:04:17.640Z,27.63
2022-12-08T20:06:45.657Z,28.40
2022-12-08T20:09:13.170Z,29.05
2022-12-08T20:11:40.325Z,27.27
2022-12-08T20:14:07.264Z,26.52
2022-12-08T20:16:34.752Z,29.17
2022-12-08T20:19:03.215Z,26.50
2022-12-08T20:21:30.322Z,27.77
2022-12-08T20:23:56.952Z,31.10
2022-12-08T20:26:24.226Z,33.92
2022-12-08T20:28:51.451Z,30.95
2022-12-08T20:31:27.642Z,32.72
2022-12-08T20:33:54.820Z,32.42
2022-12-08T20:36:22.628Z,32.88
2022-12-08T20:38:51.226Z,32.28
2022-12-08T20:41:18.835Z,40.70
2022-12-08T20:43:46.979Z,35.03
2022-12-08T20:46:16.022Z,36.40
2022-12-08T20:48:43.577Z,37.45
2022-12-08T20:51:15.335Z,35.97
2022-12-08T20:53:42.125Z,32.15
2022-12-08T20:56:08.888Z,32.75
2022-12-08T20:58:35.627Z,32.88
2022-12-08T21:01:08.949Z,31.10
2022-12-08T21:03:35.824Z,29.52
2022-12-08T21:06:02.621Z,30.13
2022-12-08T21:08:30.232Z,30.58
2022-12-08T21:10:57.436Z,28.38
2022-12-08T21:13:24.828Z,28.42
2022-12-08T21:15:51.507Z,29.60
2022-12-08T21:18:18.267Z,34.70
2022-12-08T21:20:44.937Z,31.67
2022-12-08T21:23:11.815Z,31.90
2022-12-08T21:25:44.264Z,37.63
2022-12-08T21:28:13.253Z,37.03
2022-12-08T21:30:40.455Z,34.28
2022-12-08T21:33:07.265Z,37.05
2022-12-08T21:35:34.103Z,35.80
2022-12-08T21:38:00.918Z,38.38
2022-12-08T21:40:27.689Z,35.70
2022-12-08T21:42:54.452Z,37.72
2022-12-08T21:45:21.705Z,35.83
2022-12-08T21:47:49.799Z,36.22
2022-12-08T21:50:17.796Z,37.67
2022-12-08T21:52:46.957Z,37.88
2022-12-08T21:55:15.475Z,36.92
2022-12-08T21:57:42.844Z,36.63
2022-12-08T22:00:14.086Z,38.60
2022-12-08T22:02:40.793Z,35.10
2022-12-08T22:05:11.119Z,36.03
2022-12-08T22:07:39.628Z,36.58
2022-12-08T22:10:08.303Z,36.03
2022-12-08T22:12:36.807Z,35.85
2022-12-08T22:15:06.084Z,34.28
2022-12-08T22:17:37.251Z,35.00
2022-12-08T22:20:06.629Z,36.90
2022-12-08T22:22:34.904Z,35.20
2022-12-08T22:25:06.124Z,35.15
2022-12-08T22:27:36.364Z,30.23
2022-12-08T22:30:03.857Z,32.03
2022-12-08T22:32:30.974Z,30.08
2022-12-08T22:34:57.868Z,30.45
2022-12-08T22:37:24.708Z,32.88
2022-12-08T22:39:51.372Z,28.40
2022-12-08T22:42:18.977Z,29.90
2022-12-08T22:44:45.907Z,30.80
2022-12-08T22:47:12.780Z,29.60
2022-12-08T22:49:39.801Z,31.98
2022-12-08T22:52:06.664Z,32.03
2022-12-08T22:54:33.354Z,29.67
2022-12-08T22:57:00.107Z,30.00
2022-12-08T22:59:26.799Z,31.08
2022-12-08T23:01:54.129Z,29.60
2022-12-08T23:04:20.907Z,32.42
2022-12-08T23:06:47.888Z,29.38
2022-12-08T23:09:14.696Z,28.90
2022-12-08T23:11:41.781Z,30.45
2022-12-08T23:14:08.373Z,29.90
2022-12-08T23:16:35.385Z,32.85
2022-12-08T23:19:01.993Z,34.72
2022-12-08T23:21:29.706Z,35.53
2022-12-08T23:23:56.680Z,31.38
2022-12-08T23:26:26.925Z,31.85
2022-12-08T23:28:54.474Z,29.23
2022-12-08T23:31:21.503Z,28.15
2022-12-08T23:33:48.225Z,32.20
2022-12-08T23:36:16.532Z,29.13
2022-12-08T23:38:43.780Z,28.58
2022-12-08T23:41:12.311Z,29.33
2022-12-08T23:43:44.432Z,27.50
2022-12-08T23:46:11.581Z,27.42
2022-12-08T23:48:38.622Z,26.95
2022-12-08T23:51:05.503Z,26.20
2022-12-08T23:53:32.810Z,26.20
2022-12-08T23:56:04.184Z,27.48
2022-12-08T23:58:31.607Z,27.02
